sensor_id;sensor_type;location;lat;lon;timestamp;pressure;altitude;pressure_sealevel;temperature;humidity
75996;BME280;64681;49.738;9.004;2023-04-25T00:01:25;98832.25;;;8.90;78.15
75996;BME280;64681;49.738;9.004;2023-04-25T00:03:50;98826.66;;;8.36;80.20
75996;BME280;64681;49.738;9.004;2023-04-25T00:06:16;98823.25;;;8.69;80.05
75996;BME280;64681;49.738;9.004;2023-04-25T00:08:43;98835.28;;;8.54;79.85
75996;BME280;64681;49.738;9.004;2023-04-25T00:11:09;98817.13;;;8.35;80.52
75996;BME280;64681;49.738;9.004;2023-04-25T00:13:35;98839.44;;;8.43;80.58
75996;BME280;64681;49.738;9.004;2023-04-25T00:16:00;98824.56;;;8.63;79.75
75996;BME280;64681;49.738;9.004;2023-04-25T00:18:28;98819.00;;;8.56;80.33
75996;BME280;64681;49.738;9.004;2023-04-25T00:20:55;98804.50;;;8.78;79.02
75996;BME280;64681;49.738;9.004;2023-04-25T00:23:21;98838.47;;;8.94;79.66
75996;BME280;64681;49.738;9.004;2023-04-25T00:25:48;98834.72;;;9.07;79.18
75996;BME280;64681;49.738;9.004;2023-04-25T00:28:15;98817.19;;;9.06;78.73
75996;BME280;64681;49.738;9.004;2023-04-25T00:30:41;98818.06;;;9.10;78.26
75996;BME280;64681;49.738;9.004;2023-04-25T00:33:08;98838.50;;;9.31;78.45
75996;BME280;64681;49.738;9.004;2023-04-25T00:35:35;98839.47;;;9.63;76.70
75996;BME280;64681;49.738;9.004;2023-04-25T00:38:01;98832.81;;;9.45;77.07
75996;BME280;64681;49.738;9.004;2023-04-25T00:40:27;98828.19;;;9.17;77.76
75996;BME280;64681;49.738;9.004;2023-04-25T00:42:53;98832.06;;;9.07;77.77
75996;BME280;64681;49.738;9.004;2023-04-25T00:45:19;98833.59;;;8.96;79.03
75996;BME280;64681;49.738;9.004;2023-04-25T00:47:45;98836.50;;;9.15;78.23
75996;BME280;64681;49.738;9.004;2023-04-25T00:50:13;98830.94;;;9.08;78.70
75996;BME280;64681;49.738;9.004;2023-04-25T00:52:44;98826.53;;;9.00;79.13
75996;BME280;64681;49.738;9.004;2023-04-25T00:55:12;98817.97;;;8.94;78.90
75996;BME280;64681;49.738;9.004;2023-04-25T00:57:38;98804.97;;;9.05;78.55
75996;BME280;64681;49.738;9.004;2023-04-25T01:00:05;98818.75;;;9.19;78.20
75996;BME280;64681;49.738;9.004;2023-04-25T01:02:32;98816.75;;;9.04;78.77
75996;BME280;64681;49.738;9.004;2023-04-25T01:04:58;98802.19;;;8.89;78.89
75996;BME280;64681;49.738;9.004;2023-04-25T01:07:24;98810.41;;;9.09;78.53
75996;BME280;64681;49.738;9.004;2023-04-25T01:09:53;98808.22;;;9.11;77.86
75996;BME280;64681;49.738;9.004;2023-04-25T01:12:19;98806.75;;;9.01;78.35
75996;BME280;64681;49.738;9.004;2023-04-25T01:14:45;98812.44;;;9.12;77.56
75996;BME280;64681;49.738;9.004;2023-04-25T01:17:11;98814.09;;;9.04;77.96
75996;BME280;64681;49.738;9.004;2023-04-25T01:19:37;98818.19;;;9.14;77.89
75996;BME280;64681;49.738;9.004;2023-04-25T01:22:03;98811.19;;;9.09;77.46
75996;BME280;64681;49.738;9.004;2023-04-25T01:24:31;98814.28;;;8.86;78.35
75996;BME280;64681;49.738;9.004;2023-04-25T01:26:58;98805.97;;;9.00;78.14
75996;BME280;64681;49.738;9.004;2023-04-25T01:29:28;98792.66;;;8.88;77.87
75996;BME280;64681;49.738;9.004;2023-04-25T01:31:54;98784.53;;;8.72;78.60
75996;BME280;64681;49.738;9.004;2023-04-25T01:34:20;98791.22;;;8.91;77.96
75996;BME280;64681;49.738;9.004;2023-04-25T01:36:49;98782.34;;;8.74;78.07
75996;BME280;64681;49.738;9.004;2023-04-25T01:39:15;98793.88;;;8.91;77.78
75996;BME280;64681;49.738;9.004;2023-04-25T01:41:41;98799.97;;;8.91;77.80
75996;BME280;64681;49.738;9.004;2023-04-25T01:44:07;98780.44;;;8.75;77.82
75996;BME280;64681;49.738;9.004;2023-04-25T01:46:34;98808.31;;;8.90;77.95
75996;BME280;64681;49.738;9.004;2023-04-25T01:48:59;98800.69;;;8.54;78.31
75996;BME280;64681;49.738;9.004;2023-04-25T01:51:25;98795.88;;;8.69;78.47
75996;BME280;64681;49.738;9.004;2023-04-25T01:53:52;98801.84;;;8.78;78.21
75996;BME280;64681;49.738;9.004;2023-04-25T01:56:18;98796.75;;;8.73;78.54
75996;BME280;64681;49.738;9.004;2023-04-25T01:58:47;98815.31;;;8.94;77.84
75996;BME280;64681;49.738;9.004;2023-04-25T02:01:13;98803.50;;;8.83;78.42
75996;BME280;64681;49.738;9.004;2023-04-25T02:03:39;98809.75;;;8.87;78.39
75996;BME280;64681;49.738;9.004;2023-04-25T02:06:05;98801.09;;;8.78;78.61
75996;BME280;64681;49.738;9.004;2023-04-25T02:08:30;98798.59;;;8.60;78.68
75996;BME280;64681;49.738;9.004;2023-04-25T02:10:57;98809.13;;;8.57;78.91
75996;BME280;64681;49.738;9.004;2023-04-25T02:13:22;98804.50;;;8.66;78.90
75996;BME280;64681;49.738;9.004;2023-04-25T02:15:48;98808.97;;;8.99;77.73
75996;BME280;64681;49.738;9.004;2023-04-25T02:18:14;98793.88;;;8.91;77.69
75996;BME280;64681;49.738;9.004;2023-04-25T02:20:42;98783.09;;;8.75;78.16
75996;BME280;64681;49.738;9.004;2023-04-25T02:23:08;98809.94;;;8.82;78.04
75996;BME280;64681;49.738;9.004;2023-04-25T02:25:33;98805.47;;;8.61;79.19
75996;BME280;64681;49.738;9.004;2023-04-25T02:27:59;98800.50;;;8.72;78.73
75996;BME280;64681;49.738;9.004;2023-04-25T02:30:24;98793.31;;;8.85;78.43
75996;BME280;64681;49.738;9.004;2023-04-25T02:32:50;98796.41;;;8.75;78.78
75996;BME280;64681;49.738;9.004;2023-04-25T02:35:16;98810.63;;;8.91;78.67
75996;BME280;64681;49.738;9.004;2023-04-25T02:37:42;98811.19;;;8.97;78.42
75996;BME280;64681;49.738;9.004;2023-04-25T02:40:08;98782.09;;;8.79;78.38
75996;BME280;64681;49.738;9.004;2023-04-25T02:42:36;98801.41;;;9.01;77.97
75996;BME280;64681;49.738;9.004;2023-04-25T02:45:02;98796.66;;;8.94;78.43
75996;BME280;64681;49.738;9.004;2023-04-25T02:47:28;98795.44;;;8.92;78.60
75996;BME280;64681;49.738;9.004;2023-04-25T02:49:54;98790.75;;;8.64;78.66
75996;BME280;64681;49.738;9.004;2023-04-25T02:52:20;98775.09;;;8.75;78.14
75996;BME280;64681;49.738;9.004;2023-04-25T02:54:46;98776.44;;;8.68;78.41
75996;BME280;64681;49.738;9.004;2023-04-25T02:57:12;98788.41;;;8.75;78.95
75996;BME280;64681;49.738;9.004;2023-04-25T02:59:37;98773.88;;;8.60;78.92
75996;BME280;64681;49.738;9.004;2023-04-25T03:02:03;98787.19;;;8.60;79.40
75996;BME280;64681;49.738;9.004;2023-04-25T03:04:28;98788.53;;;8.78;79.05
75996;BME280;64681;49.738;9.004;2023-04-25T03:06:54;98775.03;;;8.83;78.06
75996;BME280;64681;49.738;9.004;2023-04-25T03:09:20;98774.13;;;8.67;78.67
75996;BME280;64681;49.738;9.004;2023-04-25T03:11:45;98803.84;;;8.81;79.35
75996;BME280;64681;49.738;9.004;2023-04-25T03:14:12;98802.97;;;8.90;78.21
75996;BME280;64681;49.738;9.004;2023-04-25T03:16:38;98796.75;;;8.85;78.37
75996;BME280;64681;49.738;9.004;2023-04-25T03:19:04;98765.09;;;8.47;79.21
75996;BME280;64681;49.738;9.004;2023-04-25T03:21:31;98791.53;;;8.77;79.43
75996;BME280;64681;49.738;9.004;2023-04-25T03:23:58;98788.75;;;8.73;79.06
75996;BME280;64681;49.738;9.004;2023-04-25T03:26:24;98777.88;;;8.53;79.18
75996;BME280;64681;49.738;9.004;2023-04-25T03:28:49;98795.97;;;8.85;78.96
75996;BME280;64681;49.738;9.004;2023-04-25T03:31:15;98778.88;;;8.49;79.27
75996;BME280;64681;49.738;9.004;2023-04-25T03:33:41;98795.97;;;8.73;79.70
75996;BME280;64681;49.738;9.004;2023-04-25T03:36:06;98785.41;;;8.51;79.89
75996;BME280;64681;49.738;9.004;2023-04-25T03:38:32;98789.28;;;8.66;79.73
75996;BME280;64681;49.738;9.004;2023-04-25T03:40:58;98767.88;;;8.63;78.66
75996;BME280;64681;49.738;9.004;2023-04-25T03:43:23;98809.06;;;8.90;78.80
75996;BME280;64681;49.738;9.004;2023-04-25T03:45:49;98798.97;;;8.83;78.60
75996;BME280;64681;49.738;9.004;2023-04-25T03:48:15;98801.53;;;8.92;78.67
75996;BME280;64681;49.738;9.004;2023-04-25T03:50:40;98804.31;;;8.96;77.71
75996;BME280;64681;49.738;9.004;2023-04-25T03:53:06;98811.19;;;9.09;77.76
75996;BME280;64681;49.738;9.004;2023-04-25T03:55:31;98805.31;;;8.79;78.54
75996;BME280;64681;49.738;9.004;2023-04-25T03:58:00;98801.94;;;8.69;79.47
75996;BME280;64681;49.738;9.004;2023-04-25T04:00:25;98794.84;;;8.74;78.66
75996;BME280;64681;49.738;9.004;2023-04-25T04:02:51;98818.16;;;8.89;78.54
75996;BME280;64681;49.738;9.004;2023-04-25T04:05:17;98800.84;;;8.70;78.36
75996;BME280;64681;49.738;9.004;2023-04-25T04:07:43;98812.63;;;8.94;78.24
75996;BME280;64681;49.738;9.004;2023-04-25T04:10:09;98818.63;;;8.91;78.93
75996;BME280;64681;49.738;9.004;2023-04-25T04:12:36;98788.31;;;8.71;78.33
75996;BME280;64681;49.738;9.004;2023-04-25T04:15:03;98831.50;;;9.01;78.34
75996;BME280;64681;49.738;9.004;2023-04-25T04:17:29;98799.16;;;8.53;79.62
75996;BME280;64681;49.738;9.004;2023-04-25T04:19:55;98821.16;;;8.87;78.48
75996;BME280;64681;49.738;9.004;2023-04-25T04:22:21;98809.41;;;8.09;81.15
75996;BME280;64681;49.738;9.004;2023-04-25T04:24:47;98812.72;;;8.06;81.28
75996;BME280;64681;49.738;9.004;2023-04-25T04:27:17;98815.97;;;7.69;83.19
75996;BME280;64681;49.738;9.004;2023-04-25T04:29:43;98815.72;;;7.83;82.87
75996;BME280;64681;49.738;9.004;2023-04-25T04:32:08;98800.41;;;8.01;81.27
75996;BME280;64681;49.738;9.004;2023-04-25T04:34:34;98809.75;;;8.20;80.67
75996;BME280;64681;49.738;9.004;2023-04-25T04:37:00;98800.53;;;8.38;80.02
75996;BME280;64681;49.738;9.004;2023-04-25T04:39:26;98806.00;;;8.54;79.44
75996;BME280;64681;49.738;9.004;2023-04-25T04:41:51;98835.00;;;8.68;79.66
75996;BME280;64681;49.738;9.004;2023-04-25T04:44:17;98816.94;;;8.74;79.49
75996;BME280;64681;49.738;9.004;2023-04-25T04:46:43;98824.91;;;8.62;78.86
75996;BME280;64681;49.738;9.004;2023-04-25T04:49:11;98834.59;;;8.79;79.81
75996;BME280;64681;49.738;9.004;2023-04-25T04:51:38;98834.66;;;8.70;79.94
75996;BME280;64681;49.738;9.004;2023-04-25T04:54:04;98836.50;;;8.91;78.73
75996;BME280;64681;49.738;9.004;2023-04-25T04:56:31;98847.28;;;9.19;78.29
75996;BME280;64681;49.738;9.004;2023-04-25T04:58:57;98852.59;;;9.19;78.23
75996;BME280;64681;49.738;9.004;2023-04-25T05:01:24;98850.16;;;9.26;78.47
75996;BME280;64681;49.738;9.004;2023-04-25T05:03:49;98849.50;;;9.42;77.90
75996;BME280;64681;49.738;9.004;2023-04-25T05:06:16;98853.78;;;9.71;77.71
75996;BME280;64681;49.738;9.004;2023-04-25T05:08:42;98847.34;;;9.72;76.50
75996;BME280;64681;49.738;9.004;2023-04-25T05:11:08;98859.31;;;9.91;75.04
75996;BME280;64681;49.738;9.004;2023-04-25T05:13:33;98842.25;;;10.08;73.22
75996;BME280;64681;49.738;9.004;2023-04-25T05:15:59;98857.47;;;10.07;73.16
75996;BME280;64681;49.738;9.004;2023-04-25T05:18:24;98872.22;;;10.17;73.34
75996;BME280;64681;49.738;9.004;2023-04-25T05:20:50;98872.44;;;10.24;73.11
75996;BME280;64681;49.738;9.004;2023-04-25T05:23:15;98845.66;;;9.80;72.80
75996;BME280;64681;49.738;9.004;2023-04-25T05:25:41;98853.81;;;9.59;74.77
75996;BME280;64681;49.738;9.004;2023-04-25T05:28:07;98861.81;;;10.00;72.96
75996;BME280;64681;49.738;9.004;2023-04-25T05:30:34;98863.28;;;10.38;71.29
75996;BME280;64681;49.738;9.004;2023-04-25T05:32:59;98875.59;;;10.71;70.73
75996;BME280;64681;49.738;9.004;2023-04-25T05:35:25;98873.69;;;10.71;70.58
75996;BME280;64681;49.738;9.004;2023-04-25T05:37:51;98870.97;;;11.00;68.93
75996;BME280;64681;49.738;9.004;2023-04-25T05:40:17;98879.81;;;10.88;67.35
75996;BME280;64681;49.738;9.004;2023-04-25T05:42:42;98874.50;;;10.31;70.68
75996;BME280;64681;49.738;9.004;2023-04-25T05:45:08;98864.72;;;10.35;70.12
75996;BME280;64681;49.738;9.004;2023-04-25T05:47:34;98867.88;;;10.53;70.13
75996;BME280;64681;49.738;9.004;2023-04-25T05:50:00;98890.84;;;10.29;70.60
75996;BME280;64681;49.738;9.004;2023-04-25T05:52:25;98873.38;;;10.44;69.84
75996;BME280;64681;49.738;9.004;2023-04-25T05:54:51;98889.59;;;10.52;70.17
75996;BME280;64681;49.738;9.004;2023-04-25T05:57:25;98882.19;;;10.33;70.64
75996;BME280;64681;49.738;9.004;2023-04-25T05:59:52;98900.59;;;10.50;69.92
75996;BME280;64681;49.738;9.004;2023-04-25T06:02:19;98898.25;;;10.49;69.16
75996;BME280;64681;49.738;9.004;2023-04-25T06:04:46;98895.22;;;10.79;67.77
75996;BME280;64681;49.738;9.004;2023-04-25T06:07:12;98913.16;;;10.78;66.82
75996;BME280;64681;49.738;9.004;2023-04-25T06:09:38;98900.56;;;10.79;64.48
75996;BME280;64681;49.738;9.004;2023-04-25T06:12:05;98916.84;;;10.73;66.43
75996;BME280;64681;49.738;9.004;2023-04-25T06:14:31;98922.28;;;10.49;66.09
75996;BME280;64681;49.738;9.004;2023-04-25T06:16:57;98883.75;;;10.34;66.59
75996;BME280;64681;49.738;9.004;2023-04-25T06:19:22;98905.38;;;10.73;66.77
75996;BME280;64681;49.738;9.004;2023-04-25T06:21:48;98908.38;;;10.55;68.41
75996;BME280;64681;49.738;9.004;2023-04-25T06:24:14;98923.97;;;11.14;66.29
75996;BME280;64681;49.738;9.004;2023-04-25T06:26:39;98906.81;;;11.31;65.45
75996;BME280;64681;49.738;9.004;2023-04-25T06:29:05;98922.28;;;11.73;64.29
75996;BME280;64681;49.738;9.004;2023-04-25T06:31:30;98916.47;;;11.67;59.87
75996;BME280;64681;49.738;9.004;2023-04-25T06:33:58;98912.25;;;11.34;62.70
75996;BME280;64681;49.738;9.004;2023-04-25T06:36:23;98910.59;;;10.98;62.44
75996;BME280;64681;49.738;9.004;2023-04-25T06:38:51;98913.78;;;10.87;65.87
75996;BME280;64681;49.738;9.004;2023-04-25T06:41:20;98900.88;;;11.37;64.68
75996;BME280;64681;49.738;9.004;2023-04-25T06:43:46;98906.13;;;12.01;61.91
75996;BME280;64681;49.738;9.004;2023-04-25T06:46:12;98917.63;;;12.02;59.69
75996;BME280;64681;49.738;9.004;2023-04-25T06:48:37;98913.31;;;11.97;59.78
75996;BME280;64681;49.738;9.004;2023-04-25T06:51:03;98923.59;;;11.63;60.29
75996;BME280;64681;49.738;9.004;2023-04-25T06:53:29;98898.38;;;11.29;62.19
75996;BME280;64681;49.738;9.004;2023-04-25T06:55:55;98907.25;;;11.17;62.59
75996;BME280;64681;49.738;9.004;2023-04-25T06:58:20;98909.25;;;11.20;60.90
75996;BME280;64681;49.738;9.004;2023-04-25T07:00:46;98908.81;;;11.18;62.48
75996;BME280;64681;49.738;9.004;2023-04-25T07:03:11;98917.44;;;11.27;60.27
75996;BME280;64681;49.738;9.004;2023-04-25T07:05:37;98928.78;;;11.24;59.90
75996;BME280;64681;49.738;9.004;2023-04-25T07:08:03;98936.19;;;10.83;61.24
75996;BME280;64681;49.738;9.004;2023-04-25T07:10:29;98915.53;;;10.96;60.76
75996;BME280;64681;49.738;9.004;2023-04-25T07:12:55;98935.44;;;11.30;58.81
75996;BME280;64681;49.738;9.004;2023-04-25T07:15:20;98930.00;;;11.11;58.69
75996;BME280;64681;49.738;9.004;2023-04-25T07:17:46;98931.81;;;11.22;59.39
75996;BME280;64681;49.738;9.004;2023-04-25T07:20:12;98931.47;;;11.56;57.77
75996;BME280;64681;49.738;9.004;2023-04-25T07:22:37;98908.69;;;11.62;56.20
75996;BME280;64681;49.738;9.004;2023-04-25T07:25:03;98917.22;;;11.68;57.38
75996;BME280;64681;49.738;9.004;2023-04-25T07:27:30;98919.94;;;12.23;56.31
75996;BME280;64681;49.738;9.004;2023-04-25T07:29:56;98939.47;;;12.63;55.61
75996;BME280;64681;49.738;9.004;2023-04-25T07:32:22;98924.69;;;12.92;55.64
75996;BME280;64681;49.738;9.004;2023-04-25T07:34:48;98935.25;;;13.05;52.53
75996;BME280;64681;49.738;9.004;2023-04-25T07:37:14;98909.41;;;13.39;52.32
75996;BME280;64681;49.738;9.004;2023-04-25T07:39:40;98925.72;;;14.07;51.11
75996;BME280;64681;49.738;9.004;2023-04-25T07:42:06;98935.38;;;14.12;50.43
75996;BME280;64681;49.738;9.004;2023-04-25T07:44:36;98942.06;;;14.60;49.25
75996;BME280;64681;49.738;9.004;2023-04-25T07:47:07;98933.34;;;14.36;49.78
75996;BME280;64681;49.738;9.004;2023-04-25T07:49:34;98946.41;;;14.68;50.40
75996;BME280;64681;49.738;9.004;2023-04-25T07:52:01;98937.66;;;15.68;47.89
75996;BME280;64681;49.738;9.004;2023-04-25T07:54:27;98943.31;;;16.04;48.51
75996;BME280;64681;49.738;9.004;2023-04-25T07:56:53;98945.91;;;16.85;44.84
75996;BME280;64681;49.738;9.004;2023-04-25T07:59:19;98951.94;;;16.42;44.31
75996;BME280;64681;49.738;9.004;2023-04-25T08:01:45;98950.94;;;15.43;47.04
75996;BME280;64681;49.738;9.004;2023-04-25T08:04:10;98953.88;;;16.49;47.59
75996;BME280;64681;49.738;9.004;2023-04-25T08:06:36;98952.13;;;16.97;45.24
75996;BME280;64681;49.738;9.004;2023-04-25T08:09:02;98949.81;;;17.02;45.44
75996;BME280;64681;49.738;9.004;2023-04-25T08:11:29;98956.47;;;16.20;44.70
75996;BME280;64681;49.738;9.004;2023-04-25T08:13:54;98964.38;;;16.72;45.74
75996;BME280;64681;49.738;9.004;2023-04-25T08:16:20;98953.63;;;16.90;44.10
75996;BME280;64681;49.738;9.004;2023-04-25T08:18:46;98967.53;;;16.96;43.81
75996;BME280;64681;49.738;9.004;2023-04-25T08:21:11;98967.38;;;16.53;44.24
75996;BME280;64681;49.738;9.004;2023-04-25T08:23:38;98965.50;;;16.64;44.76
75996;BME280;64681;49.738;9.004;2023-04-25T08:26:04;98978.56;;;16.58;44.93
75996;BME280;64681;49.738;9.004;2023-04-25T08:28:30;98974.41;;;15.98;46.05
75996;BME280;64681;49.738;9.004;2023-04-25T08:30:56;98973.63;;;14.66;49.84
75996;BME280;64681;49.738;9.004;2023-04-25T08:33:22;98982.66;;;13.93;50.31
75996;BME280;64681;49.738;9.004;2023-04-25T08:35:47;98972.31;;;15.73;46.42
75996;BME280;64681;49.738;9.004;2023-04-25T08:38:13;98990.06;;;16.48;44.94
75996;BME280;64681;49.738;9.004;2023-04-25T08:40:40;99007.78;;;16.45;43.53
75996;BME280;64681;49.738;9.004;2023-04-25T08:43:07;99002.16;;;16.90;41.50
75996;BME280;64681;49.738;9.004;2023-04-25T08:45:41;99013.97;;;15.87;44.40
75996;BME280;64681;49.738;9.004;2023-04-25T08:48:17;99017.44;;;15.87;46.54
75996;BME280;64681;49.738;9.004;2023-04-25T08:50:54;99006.66;;;15.87;48.41
75996;BME280;64681;49.738;9.004;2023-04-25T08:53:28;99018.53;;;15.82;47.05
75996;BME280;64681;49.738;9.004;2023-04-25T08:55:56;99023.53;;;14.98;49.99
75996;BME280;64681;49.738;9.004;2023-04-25T08:58:23;99023.41;;;15.25;49.63
75996;BME280;64681;49.738;9.004;2023-04-25T09:00:50;99035.16;;;14.75;48.96
75996;BME280;64681;49.738;9.004;2023-04-25T09:03:17;99027.19;;;16.06;45.95
75996;BME280;64681;49.738;9.004;2023-04-25T09:05:43;99026.72;;;16.64;44.45
75996;BME280;64681;49.738;9.004;2023-04-25T09:08:09;99024.63;;;17.20;41.29
75996;BME280;64681;49.738;9.004;2023-04-25T09:10:37;99019.81;;;18.76;38.16
75996;BME280;64681;49.738;9.004;2023-04-25T09:13:27;99030.06;;;19.17;38.06
75996;BME280;64681;49.738;9.004;2023-04-25T09:15:55;99020.81;;;19.14;36.84
75996;BME280;64681;49.738;9.004;2023-04-25T09:18:26;99031.22;;;18.06;39.81
75996;BME280;64681;49.738;9.004;2023-04-25T09:20:54;99019.59;;;17.22;41.49
75996;BME280;64681;49.738;9.004;2023-04-25T09:23:21;99025.38;;;17.17;42.57
75996;BME280;64681;49.738;9.004;2023-04-25T09:25:49;99047.69;;;16.99;47.04
75996;BME280;64681;49.738;9.004;2023-04-25T09:28:15;99022.31;;;17.36;44.69
75996;BME280;64681;49.738;9.004;2023-04-25T09:30:40;99042.00;;;17.44;41.20
75996;BME280;64681;49.738;9.004;2023-04-25T09:33:07;99045.09;;;18.18;39.34
75996;BME280;64681;49.738;9.004;2023-04-25T09:35:42;99033.53;;;18.11;38.99
75996;BME280;64681;49.738;9.004;2023-04-25T09:38:14;99047.16;;;16.68;41.72
75996;BME280;64681;49.738;9.004;2023-04-25T09:40:47;99050.44;;;16.33;41.32
75996;BME280;64681;49.738;9.004;2023-04-25T09:43:19;99034.66;;;15.34;43.33
75996;BME280;64681;49.738;9.004;2023-04-25T09:45:46;99057.69;;;13.86;51.00
75996;BME280;64681;49.738;9.004;2023-04-25T09:48:23;99035.81;;;14.38;51.02
75996;BME280;64681;49.738;9.004;2023-04-25T09:51:12;99060.13;;;14.76;48.38
75996;BME280;64681;49.738;9.004;2023-04-25T09:53:46;99053.97;;;15.06;49.59
75996;BME280;64681;49.738;9.004;2023-04-25T09:56:15;99055.19;;;15.94;45.65
75996;BME280;64681;49.738;9.004;2023-04-25T09:58:42;99067.03;;;16.42;45.82
75996;BME280;64681;49.738;9.004;2023-04-25T10:01:09;99056.72;;;16.51;45.96
75996;BME280;64681;49.738;9.004;2023-04-25T10:03:38;99058.53;;;16.36;42.83
75996;BME280;64681;49.738;9.004;2023-04-25T10:06:11;99055.94;;;16.47;41.50
75996;BME280;64681;49.738;9.004;2023-04-25T10:08:38;99067.72;;;17.02;42.31
75996;BME280;64681;49.738;9.004;2023-04-25T10:11:06;99055.31;;;16.90;40.26
75996;BME280;64681;49.738;9.004;2023-04-25T10:13:34;99071.88;;;16.81;40.30
75996;BME280;64681;49.738;9.004;2023-04-25T10:16:04;99058.63;;;16.47;40.41
75996;BME280;64681;49.738;9.004;2023-04-25T10:18:32;99062.72;;;16.26;41.92
75996;BME280;64681;49.738;9.004;2023-04-25T10:21:00;99080.94;;;15.92;44.94
75996;BME280;64681;49.738;9.004;2023-04-25T10:23:27;99077.94;;;15.22;45.88
75996;BME280;64681;49.738;9.004;2023-04-25T10:25:55;99084.22;;;14.99;43.89
75996;BME280;64681;49.738;9.004;2023-04-25T10:28:21;99079.53;;;14.92;46.62
75996;BME280;64681;49.738;9.004;2023-04-25T10:31:04;99093.47;;;14.17;46.40
75996;BME280;64681;49.738;9.004;2023-04-25T10:33:35;99096.69;;;13.57;49.74
75996;BME280;64681;49.738;9.004;2023-04-25T10:36:18;99089.22;;;13.47;49.21
75996;BME280;64681;49.738;9.004;2023-04-25T10:38:45;99094.94;;;13.25;48.16
75996;BME280;64681;49.738;9.004;2023-04-25T10:41:13;99096.16;;;13.08;48.19
75996;BME280;64681;49.738;9.004;2023-04-25T10:43:46;99085.50;;;12.57;50.28
75996;BME280;64681;49.738;9.004;2023-04-25T10:48:47;99087.66;;;12.67;51.66
75996;BME280;64681;49.738;9.004;2023-04-25T10:51:21;99094.91;;;13.65;50.72
75996;BME280;64681;49.738;9.004;2023-04-25T10:53:57;99089.84;;;13.59;51.67
75996;BME280;64681;49.738;9.004;2023-04-25T10:56:26;99087.69;;;13.92;48.72
75996;BME280;64681;49.738;9.004;2023-04-25T10:59:04;99110.97;;;14.34;50.02
75996;BME280;64681;49.738;9.004;2023-04-25T11:01:36;99104.94;;;14.68;49.67
75996;BME280;64681;49.738;9.004;2023-04-25T11:04:02;99096.66;;;15.11;47.38
75996;BME280;64681;49.738;9.004;2023-04-25T11:09:40;99109.91;;;14.39;48.80
75996;BME280;64681;49.738;9.004;2023-04-25T11:12:10;99113.69;;;14.92;47.92
75996;BME280;64681;49.738;9.004;2023-04-25T11:14:37;99101.22;;;14.49;47.03
75996;BME280;64681;49.738;9.004;2023-04-25T11:17:02;99107.69;;;14.71;46.90
75996;BME280;64681;49.738;9.004;2023-04-25T11:19:29;99120.09;;;14.53;48.06
75996;BME280;64681;49.738;9.004;2023-04-25T11:21:56;99110.97;;;14.07;48.43
75996;BME280;64681;49.738;9.004;2023-04-25T11:24:32;99097.25;;;14.39;47.67
75996;BME280;64681;49.738;9.004;2023-04-25T11:26:58;99122.56;;;14.92;46.93
75996;BME280;64681;49.738;9.004;2023-04-25T11:29:28;99113.41;;;15.31;47.43
75996;BME280;64681;49.738;9.004;2023-04-25T11:31:55;99118.13;;;15.82;45.59
75996;BME280;64681;49.738;9.004;2023-04-25T11:34:23;99118.16;;;16.27;45.16
75996;BME280;64681;49.738;9.004;2023-04-25T11:36:51;99119.13;;;16.57;41.56
75996;BME280;64681;49.738;9.004;2023-04-25T11:39:19;99118.97;;;17.02;42.12
75996;BME280;64681;49.738;9.004;2023-04-25T11:41:44;99116.38;;;17.20;38.83
75996;BME280;64681;49.738;9.004;2023-04-25T11:44:10;99108.69;;;16.55;39.29
75996;BME280;64681;49.738;9.004;2023-04-25T11:46:36;99110.34;;;16.11;38.92
75996;BME280;64681;49.738;9.004;2023-04-25T11:49:02;99123.88;;;15.77;40.97
75996;BME280;64681;49.738;9.004;2023-04-25T11:51:28;99123.38;;;15.68;42.38
75996;BME280;64681;49.738;9.004;2023-04-25T11:53:53;99129.41;;;15.92;39.79
75996;BME280;64681;49.738;9.004;2023-04-25T11:56:20;99121.75;;;15.94;43.20
75996;BME280;64681;49.738;9.004;2023-04-25T11:59:00;99138.44;;;16.66;42.85
75996;BME280;64681;49.738;9.004;2023-04-25T12:01:31;99136.41;;;17.19;41.73
75996;BME280;64681;49.738;9.004;2023-04-25T12:03:58;99137.50;;;16.40;41.06
75996;BME280;64681;49.738;9.004;2023-04-25T12:06:28;99152.88;;;16.99;42.63
75996;BME280;64681;49.738;9.004;2023-04-25T12:09:11;99144.09;;;17.13;40.80
75996;BME280;64681;49.738;9.004;2023-04-25T12:11:42;99149.78;;;16.34;41.76
75996;BME280;64681;49.738;9.004;2023-04-25T12:14:09;99151.75;;;17.07;41.30
75996;BME280;64681;49.738;9.004;2023-04-25T12:16:47;99137.53;;;17.14;44.02
75996;BME280;64681;49.738;9.004;2023-04-25T12:19:15;99138.16;;;15.81;42.00
75996;BME280;64681;49.738;9.004;2023-04-25T12:21:41;99143.34;;;16.01;45.01
75996;BME280;64681;49.738;9.004;2023-04-25T12:24:10;99147.38;;;15.80;43.14
75996;BME280;64681;49.738;9.004;2023-04-25T12:27:04;99149.50;;;16.02;43.44
75996;BME280;64681;49.738;9.004;2023-04-25T12:29:32;99143.25;;;15.90;45.32
75996;BME280;64681;49.738;9.004;2023-04-25T12:31:58;99139.56;;;15.72;43.94
75996;BME280;64681;49.738;9.004;2023-04-25T12:34:25;99140.78;;;15.40;44.31
75996;BME280;64681;49.738;9.004;2023-04-25T12:36:52;99156.69;;;15.52;43.82
75996;BME280;64681;49.738;9.004;2023-04-25T12:39:20;99168.72;;;15.62;45.28
75996;BME280;64681;49.738;9.004;2023-04-25T12:41:47;99159.28;;;14.31;47.81
75996;BME280;64681;49.738;9.004;2023-04-25T12:44:14;99153.06;;;14.77;44.80
75996;BME280;64681;49.738;9.004;2023-04-25T12:46:40;99155.81;;;14.07;46.33
75996;BME280;64681;49.738;9.004;2023-04-25T12:49:07;99163.19;;;14.60;45.73
75996;BME280;64681;49.738;9.004;2023-04-25T12:51:35;99171.19;;;14.33;45.01
75996;BME280;64681;49.738;9.004;2023-04-25T12:54:02;99172.53;;;14.20;45.51
75996;BME280;64681;49.738;9.004;2023-04-25T12:56:29;99152.13;;;13.92;45.04
75996;BME280;64681;49.738;9.004;2023-04-25T12:58:55;99175.84;;;13.67;46.04
75996;BME280;64681;49.738;9.004;2023-04-25T13:01:21;99167.13;;;13.73;45.97
75996;BME280;64681;49.738;9.004;2023-04-25T13:03:48;99168.59;;;13.90;47.27
75996;BME280;64681;49.738;9.004;2023-04-25T13:06:14;99175.34;;;14.04;48.04
75996;BME280;64681;49.738;9.004;2023-04-25T13:08:40;99177.28;;;13.64;46.34
75996;BME280;64681;49.738;9.004;2023-04-25T13:11:07;99176.28;;;13.13;48.64